• Join FlightAware (Why Join?)
  • Login
  • US Flag 
Rudolph Flight #1: Arrived! 
06:34AM EST


 

Airport Tracker/Info


-or-


 

Live Flight TrackerFlight Track Log ✈ N30VP ✈ 25-Oct-2013 ✈ KTPA - KAPF

Flight Track Log - Related Links

Times and Time Zones

All times are in EDT time to prevent confusion due to time zone crossing. See the N30VP flight status page for this flight to view local times or setup timezone preferences in your user account.

Time Position Orientation Groundspeed Altitude Reporting Facility
EDT Latitude Longitude Course Direction KTS MPH feet Rate Location/Type
06:06PM 28.0667 -82.5333 360° North 237 273 6,400  Level Tampa TRACON
06:07PM 28.1167 -82.5500 344° North 281 323 10,500 2,280 Climbing Tampa TRACON
06:08PM 28.0833 -82.6333 246° West 356 410 11,000 240 Climbing Tampa TRACON
06:09PM 27.9833 -82.6333 180° South 374 430 11,000  Level Tampa TRACON
06:10PM 27.8833 -82.6167 172° South 359 413 11,000  Level Tampa TRACON
06:11PM 27.7833 -82.6167 180° South 361 415 11,000 -60 Level Tampa TRACON
06:13PM 27.6211 -82.5864 188° South 386 444 10,900 -60 Descending Miami Center
06:14PM 27.5214 -82.5722 173° South 386 444 10,900  Level Miami Center
06:15PM 27.4242 -82.5556 171° South 375 432 10,900  Level Miami Center
06:16PM 27.3186 -82.5342 170° South 362 417 10,900  Level Miami Center
06:17PM 27.2256 -82.5131 169° South 356 410 11,000  Climbing Miami Center
06:18PM 27.1303 -82.4897 168° South 351 404 11,000  Level Miami Center
06:19PM 27.0372 -82.4689 169° South 351 404 11,000  Level Miami Center
06:20PM 26.9422 -82.4458 168° South 351 404 11,000  Level Miami Center
06:21PM 26.8450 -82.4225 168° South 351 404 11,000  Level Miami Center
06:22PM 26.7519 -82.4019 169° South 351 404 11,000  Level Miami Center
06:23PM 26.6547 -82.3786 168° South 351 404 11,000  Level Miami Center
06:24PM 26.5786 -82.3425 157° South 340 391 11,000 -120 Level Miami Center
06:25PM 26.5078 -82.2858 144° Southeast 322 371 10,800 -960 Descending Miami Center
06:26PM 26.4408 -82.2319 144° Southeast 306 352 9,100 -1,620 Descending Miami Center
06:27PM 26.3781 -82.1850 146° Southeast 290 334 7,600 -1,500 Descending Miami Center
06:28PM 26.3131 -82.1358 146° Southeast 285 328 6,100 -1,320 Descending Miami Center
06:29PM 26.2417 -82.0839 147° Southeast 275 316 5,000 -1,320 Descending Miami Center
06:30PM 26.2000 -82.0267 129° Southeast 256 295 3,500 -1,020 Descending Miami Center
06:31PM 26.1603 -81.9692 128° Southeast 241 277 3,000 -840 Descending Miami Center
06:32PM 26.1244 -81.9144 126° Southeast 230 265 1,900 -1,140 Descending Miami Center
06:34PM 26.1514 -81.7806 130° Southeast  Level Estimated
06:41PM 26.1524 -81.7756 130° Southeast  Level Estimated
06:42PM 26.1524 -81.7756 130° Southeast  Level Estimated
06:43PM 26.1524 -81.7756 130° Southeast  Level Estimated
06:44PM 26.1524 -81.7756 130° Southeast  Level Estimated